Kinetic-One Castle Combe Winter TT Series 18/19
Skip Navigation Links
Results
Live Leaderboard
DB Max TT Series
Race Stats
Smartphone Results
4 Nov 2018
HyperLink
Click on your name for more detiailed lap data
Page 1 of 1 (49 items)
Pos
Bib No
Fav
Share
Photo
Name
Time *
Category
Cat Pos
Gender
Gen Pos
Club
Dist
Pace
Split 1
G/Pos
Lap 1
G/Pos
Lap 2
G/Pos
Lap 3
G/Pos
Lap 4
G/Pos
Lap 5
G/Pos
182Richard BROOK21:10.3Vet401Male1VC WALCOTT1028.3 m/hr1:47.213:52.513:53.213:52.713:53.613:50.81
267Chris MCDONALD22:11.5Tandem1Male2PDQ CYCLE COACHING1027.0 m/hr1:48.234:01.124:04.824:03.824:07.734:05.62
379John O'DWYER22:29.3Sen1Male3DURSLEY ROAD CLUB1026.7 m/hr1:47.624:02.234:09.144:08.944:15.154:06.13
471Jason STREATHER22:30.6Vet402Male4PDQ CYCLE COACHING1026.7 m/hr1:50.554:09.364:07.234:07.734:09.444:06.24
570Glen KNIGHT22:41.9Vet403Male5KISS RACING TEAM (KRT)1026.4 m/hr1:51.164:08.544:11.754:10.354:06.224:13.97
678Steve POTTS22:58.1Supvet601Male6PDQ CYCLE COACHING1026.1 m/hr1:54.084:09.254:12.564:14.464:17.474:10.35
766Frankie WHITWELL23:08.7Sen2Male7BOA CC1025.9 m/hr1:49.944:15.274:18.074:15.674:16.664:13.16
861Mike COX23:40.8Supvet602Male8CHIPPENHAM TRI1025.3 m/hr1:55.8104:21.884:20.784:21.384:19.784:21.28
957Jon WIGGINS24:27.2Sen3Male9PDQ CYCLE COACHING1024.5 m/hr1:55.194:31.5114:25.794:31.5114:33.194:30.111
1065Andrew MILNER 24:32.7Vet404Male10NORTH COTSWOLD CYCLING CLUB 1024.4 m/hr1:58.2164:26.694:30.7114:31.5124:33.5104:32.113
1149George/Simon PAYNE/DAWE24:34.92-Up1Male11 1024.4 m/hr1:56.7124:29.8104:34.3134:31.2104:34.3114:28.310
1236Nicki CARR24:41.3Sen1Female1TRI UK1024.3 m/hr2:00.524:30.214:32.214:35.414:33.914:28.81
1369Charlie PANTLIN24:42.7Vet405Male12 1024.3 m/hr2:00.9184:39.3154:28.5104:29.094:36.6134:28.19
1458Alistair FLETCHER24:45.3Jun1Male13 1024.2 m/hr1:56.2114:35.0124:31.2124:34.7134:36.9144:31.212
1544Bradley PERKINS25:13.7Jun2Male14WESTBURY WHEELERS1023.8 m/hr1:57.8144:36.0134:40.8174:41.8164:42.0174:35.114
1648Mike ANDERSON25:19.3Supvet603Male15VC VENTA1023.7 m/hr2:03.1204:39.4144:40.4154:39.4144:36.5124:40.218
1725Adam TAVNER25:22.4Vet406Male16STROUD & DISTRICT AC1023.6 m/hr1:58.1154:40.5164:43.9194:43.4194:40.1154:36.216
1864Clive SHIPWAY25:27.5Vet407Male17 1023.6 m/hr1:52.874:45.4204:40.6164:42.1174:43.8184:42.521
1956Alan ALLCOCK25:28.4Supvet604Male18DIDCOT PHOENIX CC1023.6 m/hr2:09.2264:45.1194:34.6144:42.6184:40.8164:35.815
2054Wayne WILLIAMS25:33.4Sen4Male19 1023.5 m/hr2:00.9194:44.7184:41.9184:39.5154:44.4194:41.819
2126Ryan COOMBS25:38.6Jun3Male20 1023.4 m/hr25:38.63725:38.6
2259Aimee LANE25:49.5Jun1Female2WYRE FOREST 1023.2 m/hr2:02.434:47.324:46.324:42.024:46.624:44.72
2339Jean-jacques MORIN25:50.5Sen5Male21UNIVERSITY OF SHEFFIELD UNION OF STUDENTS1023.2 m/hr1:59.7174:48.1214:46.9204:46.1204:47.4214:42.020
2476Ashley DUNN26:06.3Vet408Male22VELO CLUB BRISTOL1023.0 m/hr2:10.4274:53.6254:48.2214:50.0214:45.8204:38.017
2528Kevin GOVER26:41.1Supvet501Male23WESTBURY WHEELERS1022.5 m/hr2:04.8224:53.0244:58.4264:58.3244:56.0234:50.422
2653Robert LUCAS26:43.8Supvet605Male24PORT TALBOT WHEELERS1022.4 m/hr2:04.5214:52.4234:54.8234:55.5224:58.8244:57.826
2755Stephen CHAPMAN26:46.3Supvet502Male25CORINIUM CYCLING CLUB1022.4 m/hr2:07.8254:43.6174:59.9275:00.5264:59.9254:54.324
2862Alex MOULDER26:51.3Sen6Male26WEBB 19021022.3 m/hr1:57.5134:51.4224:56.3245:00.5275:03.3275:01.927
2918Austin WALES26:53.9Sen7Male27 1022.3 m/hr2:15.2295:02.9274:53.1224:56.4234:54.7224:51.423
3041Pete WARWICK27:03.4Vet409Male28DIDCOT PHOENIX CC1022.2 m/hr2:07.2244:57.5264:58.2255:00.4255:05.1284:54.925
315Hannah BIZOUMIS27:21.3Sen2Female3 1021.9 m/hr2:15.555:02.635:05.145:05.144:57.534:55.33
3242Emily GRIFFITHS27:31.3Sen3Female4TRI FORCE ENDURANCE1021.8 m/hr2:14.045:07.345:04.935:02.035:02.645:00.34
3334Mark BISHTON27:46.7Vet4010Male29VELO CLUB BRISTOL1021.6 m/hr2:18.2315:06.2285:06.1285:10.6285:03.1265:02.328
3431Malcolm SHIPWAY29:00.1Supvet606Male30 1020.7 m/hr2:05.3235:18.2295:23.5305:25.5295:24.9315:22.432
357Owen HUGH29:13.1Supvet503Male31 1020.5 m/hr2:10.6285:21.7305:24.6315:28.1315:27.1325:20.830
3612Martyn PENNELL29:20.9Vet4011Male32 1020.4 m/hr2:23.4325:33.6335:23.4295:29.0325:21.0295:10.429
3727Philip PAVELIN29:35.8Supvet504Male33BUSTINSKIN1020.3 m/hr2:32.1345:24.9315:27.0325:26.3305:23.3305:21.931
3833Katie SHIPWAY29:38.7Sen4Female5 1020.2 m/hr2:20.775:27.955:29.355:29.555:27.055:24.05
3913Jon TESTAR29:44.3Vet4012Male34 1020.2 m/hr2:17.6305:26.0325:30.8335:31.0335:32.1335:26.533
4030Kathryn/Sharon BUTT/COVER30:40.12-Up1Female6WESTBURY WHEELERS1019.6 m/hr1:58.615:41.165:43.165:51.165:49.475:36.56
4140Lauren BOOTH31:33.9Jun2Female7CARNAC PLANET X1019.0 m/hr2:19.965:48.775:45.076:06.885:37.965:55.47
4222Bob SYMONS32:05.2Supvet607Male35PDQ CYCLE COACHING1018.7 m/hr2:28.8335:43.6345:48.7345:59.2346:02.7346:02.034
434Anne/grace CLARK/SHEPHARD32:51.52-Up2Female8WESTBURY WHEELERS1018.3 m/hr2:39.485:52.185:56.986:04.076:06.886:12.19
449Sabrina PATTEN34:25.4Supvet501Female9NORTH BRISTOL TRIATHLON CLUB1017.4 m/hr2:51.2116:12.296:21.496:28.1116:21.796:10.58
4519Jon CARTER34:29.3Supvet505Male36 1017.4 m/hr2:41.6356:20.9356:20.2356:25.1356:28.7356:12.735
4621Fiona CARTER34:37.1Vet401Female10 1017.3 m/hr2:48.496:21.4106:24.3116:22.496:24.2116:16.210
4720Sara ROBERT35:05.4Supvet502Female11AVON VALLEY TRIATHLETES1017.1 m/hr2:51.1106:25.1116:30.7126:36.9126:22.5106:18.811
483Teresa WALTON35:31.1Supvet601Female12DURSLEY RUNNING CLUB1016.9 m/hr2:56.4126:34.2126:23.1106:27.4106:30.5126:39.212
4914Dylan NEALE42:01.6Jun4Male37AVON VALLEY TRIATHLETES1014.3 m/hr3:35.4367:43.8367:40.3368:01.6367:37.3367:22.936
Page 1 of 1 (49 items)
fb

HyperLink Copyright (c) G Vincent, 2018